Flugplatz Donauwörth-Genderkingen

Für EDMQ sind keine METAR/TAF Berichte vorhanden.
Es werden die Flugwettermeldungen vom Flugplatz Neuburg Airport in 26 km Entfernung angezeigt.

Bericht für ETSN

vom 25.01. um 21:20 UTC

Wind 2 kt aus 20°

Sichtweite 5000 m

feuchter Dunst

aufgebrochene Bewölkung in 8000 ft

aufgelockert bewölkt in 13000 ft

aufgebrochene Bewölkung in 22000 ft

Temperatur 0.0°C

Taupunkt -1.0°C

Luftfeuchtigkeit 93%

Luftdruck 1021 hPa

ETSN 252120Z 02002KT 5000 BR BKN080 SCT130 BKN220 M00/M01 Q1021 WHT

Prognose für ETSN

vom 25.01. um 00:00 UTC

Zwischen 00:00 UTC und 00:00 UTC

variable Windrichtung mit 3 kt

Sichtweite 5000 m

feuchter Dunst

gering bewölkt in 2000 ft

aufgebrochene Bewölkung in 9000 ft


Zwischen 00:00 und 00:00 UTC übergehend zu

variable Windrichtung mit 3 kt

Sichtweite 3000 m

Nebelschwaden

aufgelockert bewölkt in 500 ft

aufgelockert bewölkt in 9000 ft


Zwischen 00:00 UTC und 00:00 UTC zeitweise

kein Wind

Sichtweite 500 m

Code: FZFG

aufgebrochene Bewölkung in 100 ft

aufgelockert bewölkt in 9000 ft

TAF ETSN 252000Z 2521/2606 VRB03KT 5000 BR FEW020 BKN090 BECMG 2521/2523 VRB03KT 3000 BCFG SCT005 SCT090 TEMPO 2523/2606 00000KT 0500 FZFG BKN001 SCT090 BY ETGL
Impressum